sensor_id;sensor_type;location;lat;lon;timestamp;P1;durP1;ratioP1;P2;durP2;ratioP2
6089;SDS011;3073;42.660;23.316;2023-03-01T00:01:17;7.10;;;4.83;;
6089;SDS011;3073;42.660;23.316;2023-03-01T00:03:53;6.67;;;4.90;;
6089;SDS011;3073;42.660;23.316;2023-03-01T00:06:30;5.57;;;4.50;;
6089;SDS011;3073;42.660;23.316;2023-03-01T00:09:04;6.93;;;4.80;;
6089;SDS011;3073;42.660;23.316;2023-03-01T00:11:38;7.30;;;4.60;;
6089;SDS011;3073;42.660;23.316;2023-03-01T00:14:11;6.20;;;4.10;;
6089;SDS011;3073;42.660;23.316;2023-03-01T00:16:55;7.07;;;5.50;;
6089;SDS011;3073;42.660;23.316;2023-03-01T00:19:32;6.13;;;4.13;;
6089;SDS011;3073;42.660;23.316;2023-03-01T00:21:59;4.30;;;3.83;;
6089;SDS011;3073;42.660;23.316;2023-03-01T00:24:29;5.73;;;4.20;;
6089;SDS011;3073;42.660;23.316;2023-03-01T00:26:56;5.37;;;4.50;;
6089;SDS011;3073;42.660;23.316;2023-03-01T00:29:24;4.40;;;3.70;;
6089;SDS011;3073;42.660;23.316;2023-03-01T00:31:51;9.17;;;4.27;;
6089;SDS011;3073;42.660;23.316;2023-03-01T00:34:23;4.97;;;4.10;;
6089;SDS011;3073;42.660;23.316;2023-03-01T00:37:00;5.03;;;3.53;;
6089;SDS011;3073;42.660;23.316;2023-03-01T00:39:33;6.60;;;4.63;;
6089;SDS011;3073;42.660;23.316;2023-03-01T00:42:03;5.33;;;3.80;;
6089;SDS011;3073;42.660;23.316;2023-03-01T00:44:37;5.43;;;3.90;;
6089;SDS011;3073;42.660;23.316;2023-03-01T00:47:16;5.13;;;3.53;;
6089;SDS011;3073;42.660;23.316;2023-03-01T00:49:43;4.70;;;3.90;;
6089;SDS011;3073;42.660;23.316;2023-03-01T00:52:26;5.37;;;4.17;;
6089;SDS011;3073;42.660;23.316;2023-03-01T00:54:56;4.00;;;3.00;;
6089;SDS011;3073;42.660;23.316;2023-03-01T00:57:32;4.50;;;3.30;;
6089;SDS011;3073;42.660;23.316;2023-03-01T01:00:22;3.60;;;3.23;;
6089;SDS011;3073;42.660;23.316;2023-03-01T01:02:52;4.30;;;3.33;;
6089;SDS011;3073;42.660;23.316;2023-03-01T01:05:27;3.50;;;3.10;;
6089;SDS011;3073;42.660;23.316;2023-03-01T01:10:52;5.03;;;3.10;;
6089;SDS011;3073;42.660;23.316;2023-03-01T01:13:30;4.47;;;3.83;;
6089;SDS011;3073;42.660;23.316;2023-03-01T01:16:00;4.80;;;3.70;;
6089;SDS011;3073;42.660;23.316;2023-03-01T01:18:27;7.43;;;4.33;;
6089;SDS011;3073;42.660;23.316;2023-03-01T01:20:54;4.40;;;3.30;;
6089;SDS011;3073;42.660;23.316;2023-03-01T01:23:22;7.30;;;3.13;;
6089;SDS011;3073;42.660;23.316;2023-03-01T01:25:49;3.40;;;2.53;;
6089;SDS011;3073;42.660;23.316;2023-03-01T01:28:15;3.97;;;3.00;;
6089;SDS011;3073;42.660;23.316;2023-03-01T01:30:42;2.80;;;2.53;;
6089;SDS011;3073;42.660;23.316;2023-03-01T01:33:09;3.30;;;3.00;;
6089;SDS011;3073;42.660;23.316;2023-03-01T01:35:37;3.17;;;2.67;;
6089;SDS011;3073;42.660;23.316;2023-03-01T01:38:04;2.60;;;2.37;;
6089;SDS011;3073;42.660;23.316;2023-03-01T01:40:32;2.53;;;2.33;;
6089;SDS011;3073;42.660;23.316;2023-03-01T01:42:59;4.60;;;2.70;;
6089;SDS011;3073;42.660;23.316;2023-03-01T01:45:27;3.37;;;2.50;;
6089;SDS011;3073;42.660;23.316;2023-03-01T01:47:57;2.63;;;2.27;;
6089;SDS011;3073;42.660;23.316;2023-03-01T01:50:27;2.13;;;1.80;;
6089;SDS011;3073;42.660;23.316;2023-03-01T01:53:03;2.60;;;1.90;;
6089;SDS011;3073;42.660;23.316;2023-03-01T01:55:34;2.23;;;1.93;;
6089;SDS011;3073;42.660;23.316;2023-03-01T01:58:06;2.40;;;1.97;;
6089;SDS011;3073;42.660;23.316;2023-03-01T02:00:37;4.40;;;1.87;;
6089;SDS011;3073;42.660;23.316;2023-03-01T02:03:06;2.30;;;2.10;;
6089;SDS011;3073;42.660;23.316;2023-03-01T02:05:37;2.07;;;1.87;;
6089;SDS011;3073;42.660;23.316;2023-03-01T02:08:10;1.70;;;1.60;;
6089;SDS011;3073;42.660;23.316;2023-03-01T02:10:40;2.50;;;2.30;;
6089;SDS011;3073;42.660;23.316;2023-03-01T02:13:07;2.23;;;2.03;;
6089;SDS011;3073;42.660;23.316;2023-03-01T02:15:35;2.40;;;2.07;;
6089;SDS011;3073;42.660;23.316;2023-03-01T02:18:05;2.70;;;2.30;;
6089;SDS011;3073;42.660;23.316;2023-03-01T02:20:34;2.33;;;2.13;;
6089;SDS011;3073;42.660;23.316;2023-03-01T02:23:07;2.30;;;2.10;;
6089;SDS011;3073;42.660;23.316;2023-03-01T02:25:37;2.10;;;1.90;;
6089;SDS011;3073;42.660;23.316;2023-03-01T02:28:20;2.10;;;1.90;;
6089;SDS011;3073;42.660;23.316;2023-03-01T02:30:49;2.30;;;2.10;;
6089;SDS011;3073;42.660;23.316;2023-03-01T02:33:35;1.97;;;1.87;;
6089;SDS011;3073;42.660;23.316;2023-03-01T02:36:04;2.90;;;2.63;;
6089;SDS011;3073;42.660;23.316;2023-03-01T02:38:34;2.50;;;2.30;;
6089;SDS011;3073;42.660;23.316;2023-03-01T02:41:01;2.80;;;2.60;;
6089;SDS011;3073;42.660;23.316;2023-03-01T02:43:34;2.40;;;2.20;;
6089;SDS011;3073;42.660;23.316;2023-03-01T02:46:03;2.20;;;2.03;;
6089;SDS011;3073;42.660;23.316;2023-03-01T02:48:39;3.00;;;2.50;;
6089;SDS011;3073;42.660;23.316;2023-03-01T02:51:09;3.40;;;2.90;;
6089;SDS011;3073;42.660;23.316;2023-03-01T02:53:46;3.30;;;3.00;;
6089;SDS011;3073;42.660;23.316;2023-03-01T02:56:23;4.73;;;3.30;;
6089;SDS011;3073;42.660;23.316;2023-03-01T02:58:51;3.30;;;3.00;;
6089;SDS011;3073;42.660;23.316;2023-03-01T03:01:18;4.10;;;3.10;;
6089;SDS011;3073;42.660;23.316;2023-03-01T03:03:46;3.60;;;3.30;;
6089;SDS011;3073;42.660;23.316;2023-03-01T03:06:15;4.80;;;4.07;;
6089;SDS011;3073;42.660;23.316;2023-03-01T03:08:42;5.20;;;4.70;;
6089;SDS011;3073;42.660;23.316;2023-03-01T03:11:09;6.93;;;5.07;;
6089;SDS011;3073;42.660;23.316;2023-03-01T03:13:35;5.90;;;4.93;;
6089;SDS011;3073;42.660;23.316;2023-03-01T03:16:05;5.80;;;4.80;;
6089;SDS011;3073;42.660;23.316;2023-03-01T03:18:32;6.10;;;4.60;;
6089;SDS011;3073;42.660;23.316;2023-03-01T03:20:59;5.57;;;3.73;;
6089;SDS011;3073;42.660;23.316;2023-03-01T03:23:26;5.50;;;4.50;;
6089;SDS011;3073;42.660;23.316;2023-03-01T03:25:54;5.80;;;4.60;;
6089;SDS011;3073;42.660;23.316;2023-03-01T03:28:21;7.07;;;5.00;;
6089;SDS011;3073;42.660;23.316;2023-03-01T03:30:48;7.73;;;5.40;;
6089;SDS011;3073;42.660;23.316;2023-03-01T03:33:16;6.90;;;5.70;;
6089;SDS011;3073;42.660;23.316;2023-03-01T03:35:44;6.77;;;4.93;;
6089;SDS011;3073;42.660;23.316;2023-03-01T03:38:13;5.47;;;4.90;;
6089;SDS011;3073;42.660;23.316;2023-03-01T03:40:42;5.70;;;5.07;;
6089;SDS011;3073;42.660;23.316;2023-03-01T03:43:11;9.20;;;6.97;;
6089;SDS011;3073;42.660;23.316;2023-03-01T03:45:39;7.20;;;5.30;;
6089;SDS011;3073;42.660;23.316;2023-03-01T03:48:06;8.43;;;5.70;;
6089;SDS011;3073;42.660;23.316;2023-03-01T03:50:41;6.90;;;5.43;;
6089;SDS011;3073;42.660;23.316;2023-03-01T03:53:15;6.33;;;4.90;;
6089;SDS011;3073;42.660;23.316;2023-03-01T03:55:42;5.20;;;4.70;;
6089;SDS011;3073;42.660;23.316;2023-03-01T03:58:09;6.13;;;4.60;;
6089;SDS011;3073;42.660;23.316;2023-03-01T04:00:37;3.90;;;3.40;;
6089;SDS011;3073;42.660;23.316;2023-03-01T04:03:06;6.23;;;5.00;;
6089;SDS011;3073;42.660;23.316;2023-03-01T04:05:33;5.87;;;4.50;;
6089;SDS011;3073;42.660;23.316;2023-03-01T04:08:02;5.40;;;3.97;;
6089;SDS011;3073;42.660;23.316;2023-03-01T04:10:33;5.47;;;4.30;;
6089;SDS011;3073;42.660;23.316;2023-03-01T04:13:01;4.27;;;3.70;;
6089;SDS011;3073;42.660;23.316;2023-03-01T04:15:28;6.00;;;3.87;;
6089;SDS011;3073;42.660;23.316;2023-03-01T04:17:57;5.20;;;3.47;;
6089;SDS011;3073;42.660;23.316;2023-03-01T04:20:34;6.47;;;4.10;;
6089;SDS011;3073;42.660;23.316;2023-03-01T04:23:04;4.47;;;3.10;;
6089;SDS011;3073;42.660;23.316;2023-03-01T04:25:39;4.00;;;3.60;;
6089;SDS011;3073;42.660;23.316;2023-03-01T04:28:06;3.77;;;3.43;;
6089;SDS011;3073;42.660;23.316;2023-03-01T04:30:34;4.70;;;3.60;;
6089;SDS011;3073;42.660;23.316;2023-03-01T04:33:02;4.67;;;3.97;;
6089;SDS011;3073;42.660;23.316;2023-03-01T04:35:29;6.90;;;4.00;;
6089;SDS011;3073;42.660;23.316;2023-03-01T04:38:00;8.43;;;5.13;;
6089;SDS011;3073;42.660;23.316;2023-03-01T04:40:28;3.70;;;3.30;;
6089;SDS011;3073;42.660;23.316;2023-03-01T04:42:55;7.07;;;4.60;;
6089;SDS011;3073;42.660;23.316;2023-03-01T04:45:22;4.40;;;3.60;;
6089;SDS011;3073;42.660;23.316;2023-03-01T04:47:49;8.20;;;4.20;;
6089;SDS011;3073;42.660;23.316;2023-03-01T04:50:17;5.83;;;3.63;;
6089;SDS011;3073;42.660;23.316;2023-03-01T04:52:47;5.87;;;4.47;;
6089;SDS011;3073;42.660;23.316;2023-03-01T04:55:14;7.17;;;4.40;;
6089;SDS011;3073;42.660;23.316;2023-03-01T04:57:42;6.53;;;4.07;;
6089;SDS011;3073;42.660;23.316;2023-03-01T05:00:11;6.60;;;4.17;;
6089;SDS011;3073;42.660;23.316;2023-03-01T05:02:49;8.20;;;5.13;;
6089;SDS011;3073;42.660;23.316;2023-03-01T05:05:20;4.87;;;3.90;;
6089;SDS011;3073;42.660;23.316;2023-03-01T05:07:51;5.37;;;3.90;;
6089;SDS011;3073;42.660;23.316;2023-03-01T05:10:22;5.70;;;4.27;;
6089;SDS011;3073;42.660;23.316;2023-03-01T05:12:51;4.40;;;3.70;;
6089;SDS011;3073;42.660;23.316;2023-03-01T05:15:22;5.40;;;3.87;;
6089;SDS011;3073;42.660;23.316;2023-03-01T05:17:52;6.03;;;4.10;;
6089;SDS011;3073;42.660;23.316;2023-03-01T05:20:19;6.43;;;4.37;;
6089;SDS011;3073;42.660;23.316;2023-03-01T05:22:49;10.70;;;5.87;;
6089;SDS011;3073;42.660;23.316;2023-03-01T05:25:16;8.40;;;5.10;;
6089;SDS011;3073;42.660;23.316;2023-03-01T05:27:43;6.30;;;4.20;;
6089;SDS011;3073;42.660;23.316;2023-03-01T05:30:22;6.47;;;4.20;;
6089;SDS011;3073;42.660;23.316;2023-03-01T05:32:50;5.07;;;3.63;;
6089;SDS011;3073;42.660;23.316;2023-03-01T05:35:24;4.43;;;3.70;;
6089;SDS011;3073;42.660;23.316;2023-03-01T05:37:52;8.60;;;4.40;;
6089;SDS011;3073;42.660;23.316;2023-03-01T05:40:23;5.90;;;3.90;;
6089;SDS011;3073;42.660;23.316;2023-03-01T05:42:52;7.00;;;4.17;;
6089;SDS011;3073;42.660;23.316;2023-03-01T05:45:23;6.20;;;4.33;;
6089;SDS011;3073;42.660;23.316;2023-03-01T05:47:51;11.47;;;4.10;;
6089;SDS011;3073;42.660;23.316;2023-03-01T05:50:20;4.30;;;3.87;;
6089;SDS011;3073;42.660;23.316;2023-03-01T05:52:50;7.73;;;4.70;;
6089;SDS011;3073;42.660;23.316;2023-03-01T05:55:22;4.97;;;3.70;;
6089;SDS011;3073;42.660;23.316;2023-03-01T05:57:49;8.97;;;3.37;;
6089;SDS011;3073;42.660;23.316;2023-03-01T06:00:17;7.17;;;3.80;;
6089;SDS011;3073;42.660;23.316;2023-03-01T06:02:48;4.30;;;3.20;;
6089;SDS011;3073;42.660;23.316;2023-03-01T06:05:17;4.63;;;2.80;;
6089;SDS011;3073;42.660;23.316;2023-03-01T06:07:44;8.27;;;3.80;;
6089;SDS011;3073;42.660;23.316;2023-03-01T06:10:11;4.20;;;2.83;;
6089;SDS011;3073;42.660;23.316;2023-03-01T06:12:39;4.53;;;3.10;;
6089;SDS011;3073;42.660;23.316;2023-03-01T06:15:07;6.67;;;3.47;;
6089;SDS011;3073;42.660;23.316;2023-03-01T06:17:35;5.73;;;3.77;;
6089;SDS011;3073;42.660;23.316;2023-03-01T06:20:06;4.50;;;3.10;;
6089;SDS011;3073;42.660;23.316;2023-03-01T06:22:35;16.00;;;3.97;;
6089;SDS011;3073;42.660;23.316;2023-03-01T06:25:02;9.57;;;3.50;;
6089;SDS011;3073;42.660;23.316;2023-03-01T06:27:30;6.77;;;3.03;;
6089;SDS011;3073;42.660;23.316;2023-03-01T06:29:57;5.30;;;3.30;;
6089;SDS011;3073;42.660;23.316;2023-03-01T06:32:24;8.60;;;3.07;;
6089;SDS011;3073;42.660;23.316;2023-03-01T06:34:51;4.93;;;3.07;;
6089;SDS011;3073;42.660;23.316;2023-03-01T06:37:19;6.27;;;3.57;;
6089;SDS011;3073;42.660;23.316;2023-03-01T06:39:46;10.37;;;2.80;;
6089;SDS011;3073;42.660;23.316;2023-03-01T06:42:12;6.10;;;2.87;;
6089;SDS011;3073;42.660;23.316;2023-03-01T06:44:39;3.00;;;2.70;;
6089;SDS011;3073;42.660;23.316;2023-03-01T06:47:06;7.70;;;3.37;;
6089;SDS011;3073;42.660;23.316;2023-03-01T06:49:35;5.77;;;2.60;;
6089;SDS011;3073;42.660;23.316;2023-03-01T06:52:02;5.90;;;2.90;;
6089;SDS011;3073;42.660;23.316;2023-03-01T06:54:30;4.80;;;2.73;;
6089;SDS011;3073;42.660;23.316;2023-03-01T06:56:57;10.80;;;3.40;;
6089;SDS011;3073;42.660;23.316;2023-03-01T06:59:24;3.93;;;2.60;;
6089;SDS011;3073;42.660;23.316;2023-03-01T07:01:51;3.20;;;2.40;;
6089;SDS011;3073;42.660;23.316;2023-03-01T07:04:18;4.80;;;2.90;;
6089;SDS011;3073;42.660;23.316;2023-03-01T07:06:45;4.67;;;2.70;;
6089;SDS011;3073;42.660;23.316;2023-03-01T07:09:19;6.90;;;3.30;;
6089;SDS011;3073;42.660;23.316;2023-03-01T07:11:48;4.10;;;2.93;;
6089;SDS011;3073;42.660;23.316;2023-03-01T07:14:15;3.60;;;2.83;;
6089;SDS011;3073;42.660;23.316;2023-03-01T07:16:42;8.80;;;3.17;;
6089;SDS011;3073;42.660;23.316;2023-03-01T07:19:09;4.27;;;2.70;;
6089;SDS011;3073;42.660;23.316;2023-03-01T07:21:36;6.30;;;3.13;;
6089;SDS011;3073;42.660;23.316;2023-03-01T07:24:04;4.10;;;2.77;;
6089;SDS011;3073;42.660;23.316;2023-03-01T07:26:32;2.93;;;2.60;;
6089;SDS011;3073;42.660;23.316;2023-03-01T07:29:00;8.03;;;3.87;;
6089;SDS011;3073;42.660;23.316;2023-03-01T07:31:28;4.40;;;2.80;;
6089;SDS011;3073;42.660;23.316;2023-03-01T07:33:55;8.43;;;2.87;;
6089;SDS011;3073;42.660;23.316;2023-03-01T07:36:22;4.67;;;2.97;;
6089;SDS011;3073;42.660;23.316;2023-03-01T07:38:49;7.33;;;2.50;;
6089;SDS011;3073;42.660;23.316;2023-03-01T07:41:16;3.80;;;2.73;;
6089;SDS011;3073;42.660;23.316;2023-03-01T07:43:43;8.03;;;3.10;;
6089;SDS011;3073;42.660;23.316;2023-03-01T07:46:11;4.43;;;2.23;;
6089;SDS011;3073;42.660;23.316;2023-03-01T07:48:38;7.27;;;3.30;;
6089;SDS011;3073;42.660;23.316;2023-03-01T07:51:05;13.00;;;4.53;;
6089;SDS011;3073;42.660;23.316;2023-03-01T07:53:33;11.13;;;5.20;;
6089;SDS011;3073;42.660;23.316;2023-03-01T07:56:01;14.40;;;4.97;;
6089;SDS011;3073;42.660;23.316;2023-03-01T07:58:29;11.17;;;3.90;;
6089;SDS011;3073;42.660;23.316;2023-03-01T08:00:55;11.67;;;4.07;;
6089;SDS011;3073;42.660;23.316;2023-03-01T08:03:24;9.17;;;5.00;;
6089;SDS011;3073;42.660;23.316;2023-03-01T08:05:50;7.70;;;3.90;;
6089;SDS011;3073;42.660;23.316;2023-03-01T08:08:17;13.00;;;4.13;;
6089;SDS011;3073;42.660;23.316;2023-03-01T08:10:44;7.40;;;3.77;;
6089;SDS011;3073;42.660;23.316;2023-03-01T08:13:11;6.60;;;3.70;;
6089;SDS011;3073;42.660;23.316;2023-03-01T08:15:38;4.83;;;2.90;;
6089;SDS011;3073;42.660;23.316;2023-03-01T08:18:05;8.90;;;4.43;;
6089;SDS011;3073;42.660;23.316;2023-03-01T08:20:33;6.67;;;5.27;;
6089;SDS011;3073;42.660;23.316;2023-03-01T08:23:00;5.13;;;4.20;;
6089;SDS011;3073;42.660;23.316;2023-03-01T08:25:27;10.00;;;6.17;;
6089;SDS011;3073;42.660;23.316;2023-03-01T08:27:54;6.83;;;6.13;;
6089;SDS011;3073;42.660;23.316;2023-03-01T08:30:21;7.47;;;5.50;;
6089;SDS011;3073;42.660;23.316;2023-03-01T08:32:49;10.00;;;4.80;;
6089;SDS011;3073;42.660;23.316;2023-03-01T08:35:16;4.50;;;3.50;;
6089;SDS011;3073;42.660;23.316;2023-03-01T08:37:45;9.30;;;4.80;;
6089;SDS011;3073;42.660;23.316;2023-03-01T08:40:12;12.50;;;6.50;;
6089;SDS011;3073;42.660;23.316;2023-03-01T08:42:40;12.03;;;5.23;;
6089;SDS011;3073;42.660;23.316;2023-03-01T08:45:09;10.93;;;5.20;;
6089;SDS011;3073;42.660;23.316;2023-03-01T08:47:38;6.60;;;4.57;;
6089;SDS011;3073;42.660;23.316;2023-03-01T08:50:05;4.67;;;3.03;;
6089;SDS011;3073;42.660;23.316;2023-03-01T08:52:33;6.23;;;3.40;;
6089;SDS011;3073;42.660;23.316;2023-03-01T08:55:01;7.23;;;2.03;;
6089;SDS011;3073;42.660;23.316;2023-03-01T08:57:28;2.60;;;1.70;;
6089;SDS011;3073;42.660;23.316;2023-03-01T08:59:55;7.03;;;3.93;;
6089;SDS011;3073;42.660;23.316;2023-03-01T09:02:22;13.57;;;3.70;;
6089;SDS011;3073;42.660;23.316;2023-03-01T09:04:49;5.03;;;2.90;;
6089;SDS011;3073;42.660;23.316;2023-03-01T09:07:16;4.80;;;3.13;;
6089;SDS011;3073;42.660;23.316;2023-03-01T09:09:43;10.83;;;3.77;;
6089;SDS011;3073;42.660;23.316;2023-03-01T09:12:11;4.70;;;3.50;;
6089;SDS011;3073;42.660;23.316;2023-03-01T09:14:38;7.53;;;4.23;;
6089;SDS011;3073;42.660;23.316;2023-03-01T09:17:08;6.57;;;4.53;;
6089;SDS011;3073;42.660;23.316;2023-03-01T09:19:34;12.17;;;5.50;;
6089;SDS011;3073;42.660;23.316;2023-03-01T09:22:02;12.13;;;6.10;;
6089;SDS011;3073;42.660;23.316;2023-03-01T09:24:29;8.33;;;3.87;;
6089;SDS011;3073;42.660;23.316;2023-03-01T09:26:57;3.90;;;2.60;;
6089;SDS011;3073;42.660;23.316;2023-03-01T09:29:25;9.83;;;4.17;;
6089;SDS011;3073;42.660;23.316;2023-03-01T09:31:52;11.53;;;4.27;;
6089;SDS011;3073;42.660;23.316;2023-03-01T09:34:20;4.40;;;3.33;;
6089;SDS011;3073;42.660;23.316;2023-03-01T09:36:48;4.77;;;3.77;;
6089;SDS011;3073;42.660;23.316;2023-03-01T09:39:15;3.63;;;2.23;;
6089;SDS011;3073;42.660;23.316;2023-03-01T09:41:45;4.83;;;2.47;;
6089;SDS011;3073;42.660;23.316;2023-03-01T09:44:27;3.03;;;2.33;;
6089;SDS011;3073;42.660;23.316;2023-03-01T09:46:57;8.50;;;3.10;;
6089;SDS011;3073;42.660;23.316;2023-03-01T09:49:26;7.70;;;2.57;;
6089;SDS011;3073;42.660;23.316;2023-03-01T09:51:57;10.23;;;2.27;;
6089;SDS011;3073;42.660;23.316;2023-03-01T09:54:26;4.63;;;2.60;;
6089;SDS011;3073;42.660;23.316;2023-03-01T09:56:59;4.20;;;2.80;;
6089;SDS011;3073;42.660;23.316;2023-03-01T09:59:36;2.47;;;1.63;;
6089;SDS011;3073;42.660;23.316;2023-03-01T10:02:19;3.13;;;2.23;;
6089;SDS011;3073;42.660;23.316;2023-03-01T10:04:52;6.40;;;2.27;;
6089;SDS011;3073;42.660;23.316;2023-03-01T10:07:27;9.80;;;3.60;;
6089;SDS011;3073;42.660;23.316;2023-03-01T10:10:04;5.47;;;3.17;;
6089;SDS011;3073;42.660;23.316;2023-03-01T10:12:34;6.53;;;3.07;;
6089;SDS011;3073;42.660;23.316;2023-03-01T10:15:06;6.90;;;3.33;;
6089;SDS011;3073;42.660;23.316;2023-03-01T10:17:39;7.00;;;3.53;;
6089;SDS011;3073;42.660;23.316;2023-03-01T10:20:17;10.50;;;4.27;;
6089;SDS011;3073;42.660;23.316;2023-03-01T10:22:46;6.17;;;2.83;;
6089;SDS011;3073;42.660;23.316;2023-03-01T10:25:16;6.77;;;2.33;;
6089;SDS011;3073;42.660;23.316;2023-03-01T10:27:51;6.17;;;3.50;;
6089;SDS011;3073;42.660;23.316;2023-03-01T10:30:21;7.07;;;3.60;;
6089;SDS011;3073;42.660;23.316;2023-03-01T10:32:55;7.90;;;3.60;;
6089;SDS011;3073;42.660;23.316;2023-03-01T10:35:24;14.97;;;3.53;;
6089;SDS011;3073;42.660;23.316;2023-03-01T10:37:57;5.40;;;2.87;;
6089;SDS011;3073;42.660;23.316;2023-03-01T10:40:28;13.33;;;3.70;;
6089;SDS011;3073;42.660;23.316;2023-03-01T10:42:57;6.23;;;2.70;;
6089;SDS011;3073;42.660;23.316;2023-03-01T10:45:33;7.67;;;3.53;;
6089;SDS011;3073;42.660;23.316;2023-03-01T10:48:08;7.60;;;3.57;;
6089;SDS011;3073;42.660;23.316;2023-03-01T10:50:39;7.93;;;2.50;;
6089;SDS011;3073;42.660;23.316;2023-03-01T10:53:18;4.20;;;3.20;;
6089;SDS011;3073;42.660;23.316;2023-03-01T10:55:49;8.23;;;4.27;;
6089;SDS011;3073;42.660;23.316;2023-03-01T10:58:23;4.30;;;3.40;;
6089;SDS011;3073;42.660;23.316;2023-03-01T11:00:52;5.03;;;3.30;;
6089;SDS011;3073;42.660;23.316;2023-03-01T11:03:21;7.73;;;3.80;;
6089;SDS011;3073;42.660;23.316;2023-03-01T11:05:51;5.40;;;3.77;;
6089;SDS011;3073;42.660;23.316;2023-03-01T11:08:31;6.17;;;4.00;;
6089;SDS011;3073;42.660;23.316;2023-03-01T11:11:06;10.10;;;3.23;;
6089;SDS011;3073;42.660;23.316;2023-03-01T11:13:47;4.63;;;3.20;;
6089;SDS011;3073;42.660;23.316;2023-03-01T11:16:23;4.30;;;3.53;;
6089;SDS011;3073;42.660;23.316;2023-03-01T11:18:59;5.37;;;3.80;;
6089;SDS011;3073;42.660;23.316;2023-03-01T11:21:31;4.63;;;3.10;;
6089;SDS011;3073;42.660;23.316;2023-03-01T11:24:01;5.27;;;4.13;;
6089;SDS011;3073;42.660;23.316;2023-03-01T11:26:29;5.07;;;3.80;;
6089;SDS011;3073;42.660;23.316;2023-03-01T11:29:02;9.60;;;4.63;;
6089;SDS011;3073;42.660;23.316;2023-03-01T11:31:34;5.20;;;4.20;;
6089;SDS011;3073;42.660;23.316;2023-03-01T11:34:04;7.53;;;3.57;;
6089;SDS011;3073;42.660;23.316;2023-03-01T11:36:39;6.13;;;4.00;;
6089;SDS011;3073;42.660;23.316;2023-03-01T11:39:15;3.80;;;3.30;;
6089;SDS011;3073;42.660;23.316;2023-03-01T11:41:52;6.10;;;3.23;;
6089;SDS011;3073;42.660;23.316;2023-03-01T11:44:33;6.83;;;4.00;;
6089;SDS011;3073;42.660;23.316;2023-03-01T11:47:10;4.20;;;3.53;;
6089;SDS011;3073;42.660;23.316;2023-03-01T11:49:52;6.93;;;4.30;;
6089;SDS011;3073;42.660;23.316;2023-03-01T11:52:40;6.67;;;4.80;;
6089;SDS011;3073;42.660;23.316;2023-03-01T11:55:19;8.23;;;4.67;;
6089;SDS011;3073;42.660;23.316;2023-03-01T11:58:00;7.63;;;4.80;;
6089;SDS011;3073;42.660;23.316;2023-03-01T12:00:42;11.40;;;4.00;;
6089;SDS011;3073;42.660;23.316;2023-03-01T12:03:29;9.40;;;5.40;;
6089;SDS011;3073;42.660;23.316;2023-03-01T12:09:17;11.07;;;4.90;;
6089;SDS011;3073;42.660;23.316;2023-03-01T12:15:00;5.30;;;4.07;;
6089;SDS011;3073;42.660;23.316;2023-03-01T12:17:49;5.50;;;4.30;;
6089;SDS011;3073;42.660;23.316;2023-03-01T12:20:32;11.73;;;6.30;;
6089;SDS011;3073;42.660;23.316;2023-03-01T12:23:16;9.03;;;4.80;;
6089;SDS011;3073;42.660;23.316;2023-03-01T12:25:55;5.93;;;4.37;;
6089;SDS011;3073;42.660;23.316;2023-03-01T12:28:36;10.50;;;5.00;;
6089;SDS011;3073;42.660;23.316;2023-03-01T12:31:29;7.10;;;4.37;;
6089;SDS011;3073;42.660;23.316;2023-03-01T12:34:17;6.10;;;4.70;;
6089;SDS011;3073;42.660;23.316;2023-03-01T12:37:08;5.60;;;4.07;;
6089;SDS011;3073;42.660;23.316;2023-03-01T12:39:47;5.90;;;3.90;;
6089;SDS011;3073;42.660;23.316;2023-03-01T12:42:27;7.00;;;4.63;;
6089;SDS011;3073;42.660;23.316;2023-03-01T12:45:16;8.03;;;5.30;;
6089;SDS011;3073;42.660;23.316;2023-03-01T12:48:01;6.60;;;4.27;;
6089;SDS011;3073;42.660;23.316;2023-03-01T12:50:38;8.83;;;4.43;;
6089;SDS011;3073;42.660;23.316;2023-03-01T12:53:14;3.73;;;3.03;;
6089;SDS011;3073;42.660;23.316;2023-03-01T12:55:49;4.20;;;3.57;;
6089;SDS011;3073;42.660;23.316;2023-03-01T12:58:21;4.77;;;3.97;;
6089;SDS011;3073;42.660;23.316;2023-03-01T13:01:04;4.17;;;3.77;;
6089;SDS011;3073;42.660;23.316;2023-03-01T13:03:44;4.73;;;3.70;;
6089;SDS011;3073;42.660;23.316;2023-03-01T13:06:25;10.33;;;3.53;;
6089;SDS011;3073;42.660;23.316;2023-03-01T13:09:04;3.73;;;3.30;;
6089;SDS011;3073;42.660;23.316;2023-03-01T13:11:36;6.00;;;4.33;;
6089;SDS011;3073;42.660;23.316;2023-03-01T13:17:03;6.10;;;3.90;;
6089;SDS011;3073;42.660;23.316;2023-03-01T13:19:30;6.00;;;4.10;;
6089;SDS011;3073;42.660;23.316;2023-03-01T13:21:58;10.20;;;3.90;;
6089;SDS011;3073;42.660;23.316;2023-03-01T13:24:33;5.43;;;3.30;;
6089;SDS011;3073;42.660;23.316;2023-03-01T13:29:54;10.30;;;4.50;;
6089;SDS011;3073;42.660;23.316;2023-03-01T13:32:25;6.23;;;3.53;;
6089;SDS011;3073;42.660;23.316;2023-03-01T13:34:57;3.87;;;3.00;;
6089;SDS011;3073;42.660;23.316;2023-03-01T13:37:26;7.73;;;5.00;;
6089;SDS011;3073;42.660;23.316;2023-03-01T13:40:01;8.47;;;4.27;;
6089;SDS011;3073;42.660;23.316;2023-03-01T13:42:36;4.90;;;4.00;;
6089;SDS011;3073;42.660;23.316;2023-03-01T13:47:56;8.90;;;4.90;;
6089;SDS011;3073;42.660;23.316;2023-03-01T13:50:28;8.17;;;4.50;;
6089;SDS011;3073;42.660;23.316;2023-03-01T13:53:00;5.30;;;4.30;;
6089;SDS011;3073;42.660;23.316;2023-03-01T13:55:34;5.70;;;4.37;;
6089;SDS011;3073;42.660;23.316;2023-03-01T13:58:04;14.43;;;4.63;;
6089;SDS011;3073;42.660;23.316;2023-03-01T14:00:41;5.13;;;3.87;;
6089;SDS011;3073;42.660;23.316;2023-03-01T14:03:09;11.53;;;4.00;;
6089;SDS011;3073;42.660;23.316;2023-03-01T14:05:38;4.53;;;4.10;;
6089;SDS011;3073;42.660;23.316;2023-03-01T14:08:17;6.70;;;4.60;;
6089;SDS011;3073;42.660;23.316;2023-03-01T14:14:00;7.20;;;4.23;;
6089;SDS011;3073;42.660;23.316;2023-03-01T14:16:40;5.00;;;3.67;;
6089;SDS011;3073;42.660;23.316;2023-03-01T14:19:17;7.30;;;4.03;;
6089;SDS011;3073;42.660;23.316;2023-03-01T14:21:56;5.93;;;4.00;;
6089;SDS011;3073;42.660;23.316;2023-03-01T14:24:28;9.20;;;4.30;;
6089;SDS011;3073;42.660;23.316;2023-03-01T14:26:59;8.33;;;5.10;;
6089;SDS011;3073;42.660;23.316;2023-03-01T14:29:28;10.93;;;4.27;;
6089;SDS011;3073;42.660;23.316;2023-03-01T14:32:12;5.83;;;3.73;;
6089;SDS011;3073;42.660;23.316;2023-03-01T14:34:45;8.33;;;4.50;;
6089;SDS011;3073;42.660;23.316;2023-03-01T14:37:18;8.63;;;4.20;;
6089;SDS011;3073;42.660;23.316;2023-03-01T14:39:47;4.73;;;3.87;;
6089;SDS011;3073;42.660;23.316;2023-03-01T14:42:16;13.80;;;3.20;;
6089;SDS011;3073;42.660;23.316;2023-03-01T14:44:45;6.53;;;3.87;;
6089;SDS011;3073;42.660;23.316;2023-03-01T14:47:14;6.40;;;4.37;;
6089;SDS011;3073;42.660;23.316;2023-03-01T14:49:47;5.03;;;3.40;;
6089;SDS011;3073;42.660;23.316;2023-03-01T14:52:19;6.53;;;4.30;;
6089;SDS011;3073;42.660;23.316;2023-03-01T14:54:48;6.07;;;3.93;;
6089;SDS011;3073;42.660;23.316;2023-03-01T14:57:19;7.40;;;4.07;;
6089;SDS011;3073;42.660;23.316;2023-03-01T14:59:48;8.80;;;3.03;;
6089;SDS011;3073;42.660;23.316;2023-03-01T15:02:18;7.77;;;3.90;;
6089;SDS011;3073;42.660;23.316;2023-03-01T15:04:48;7.43;;;3.40;;
6089;SDS011;3073;42.660;23.316;2023-03-01T15:07:17;6.00;;;3.03;;
6089;SDS011;3073;42.660;23.316;2023-03-01T15:09:45;10.13;;;2.93;;
6089;SDS011;3073;42.660;23.316;2023-03-01T15:18:05;7.90;;;4.63;;
6089;SDS011;3073;42.660;23.316;2023-03-01T15:20:41;7.57;;;3.80;;
6089;SDS011;3073;42.660;23.316;2023-03-01T15:23:14;8.33;;;4.83;;
6089;SDS011;3073;42.660;23.316;2023-03-01T15:25:45;7.93;;;4.97;;
6089;SDS011;3073;42.660;23.316;2023-03-01T15:28:21;9.30;;;6.03;;
6089;SDS011;3073;42.660;23.316;2023-03-01T15:30:52;10.77;;;5.07;;
6089;SDS011;3073;42.660;23.316;2023-03-01T15:33:28;11.83;;;4.47;;
6089;SDS011;3073;42.660;23.316;2023-03-01T15:35:58;6.73;;;4.60;;
6089;SDS011;3073;42.660;23.316;2023-03-01T15:38:26;7.33;;;4.40;;
6089;SDS011;3073;42.660;23.316;2023-03-01T15:40:54;6.10;;;4.60;;
6089;SDS011;3073;42.660;23.316;2023-03-01T15:43:41;8.97;;;4.77;;
6089;SDS011;3073;42.660;23.316;2023-03-01T15:48:57;10.50;;;4.20;;
6089;SDS011;3073;42.660;23.316;2023-03-01T15:51:30;6.13;;;4.30;;
6089;SDS011;3073;42.660;23.316;2023-03-01T15:54:02;6.53;;;4.60;;